sensor_id;sensor_type;location;lat;lon;timestamp;P1;durP1;ratioP1;P2;durP2;ratioP2
15645;SDS011;7922;43.622;1.476;2023-03-14T00:01:48;3.57;;;1.97;;
15645;SDS011;7922;43.622;1.476;2023-03-14T00:04:13;4.30;;;2.03;;
15645;SDS011;7922;43.622;1.476;2023-03-14T00:06:38;11.40;;;2.83;;
15645;SDS011;7922;43.622;1.476;2023-03-14T00:09:04;9.27;;;2.80;;
15645;SDS011;7922;43.622;1.476;2023-03-14T00:11:29;9.20;;;1.97;;
15645;SDS011;7922;43.622;1.476;2023-03-14T00:13:54;6.90;;;1.97;;
15645;SDS011;7922;43.622;1.476;2023-03-14T00:16:21;8.10;;;2.37;;
15645;SDS011;7922;43.622;1.476;2023-03-14T00:18:47;3.23;;;1.50;;
15645;SDS011;7922;43.622;1.476;2023-03-14T00:21:13;4.73;;;1.63;;
15645;SDS011;7922;43.622;1.476;2023-03-14T00:23:39;8.73;;;2.20;;
15645;SDS011;7922;43.622;1.476;2023-03-14T00:26:06;6.07;;;2.27;;
15645;SDS011;7922;43.622;1.476;2023-03-14T00:28:36;14.93;;;2.97;;
15645;SDS011;7922;43.622;1.476;2023-03-14T00:31:03;6.47;;;1.80;;
15645;SDS011;7922;43.622;1.476;2023-03-14T00:33:29;5.47;;;2.03;;
15645;SDS011;7922;43.622;1.476;2023-03-14T00:36:02;5.00;;;1.90;;
15645;SDS011;7922;43.622;1.476;2023-03-14T00:38:32;3.60;;;1.83;;
15645;SDS011;7922;43.622;1.476;2023-03-14T00:40:57;7.63;;;2.33;;
15645;SDS011;7922;43.622;1.476;2023-03-14T00:43:23;5.43;;;2.33;;
15645;SDS011;7922;43.622;1.476;2023-03-14T00:45:49;8.57;;;2.57;;
15645;SDS011;7922;43.622;1.476;2023-03-14T00:48:16;6.33;;;1.50;;
15645;SDS011;7922;43.622;1.476;2023-03-14T00:50:42;7.47;;;2.07;;
15645;SDS011;7922;43.622;1.476;2023-03-14T00:53:08;8.43;;;1.63;;
15645;SDS011;7922;43.622;1.476;2023-03-14T00:55:36;8.27;;;1.80;;
15645;SDS011;7922;43.622;1.476;2023-03-14T00:58:05;5.97;;;1.60;;
15645;SDS011;7922;43.622;1.476;2023-03-14T01:00:31;6.27;;;1.63;;
15645;SDS011;7922;43.622;1.476;2023-03-14T01:02:57;4.80;;;1.60;;
15645;SDS011;7922;43.622;1.476;2023-03-14T01:05:22;9.87;;;2.10;;
15645;SDS011;7922;43.622;1.476;2023-03-14T01:07:48;9.47;;;2.20;;
15645;SDS011;7922;43.622;1.476;2023-03-14T01:10:13;5.10;;;1.60;;
15645;SDS011;7922;43.622;1.476;2023-03-14T01:12:38;4.80;;;1.50;;
15645;SDS011;7922;43.622;1.476;2023-03-14T01:15:04;7.23;;;1.70;;
15645;SDS011;7922;43.622;1.476;2023-03-14T01:17:29;7.63;;;2.10;;
15645;SDS011;7922;43.622;1.476;2023-03-14T01:19:55;7.73;;;1.60;;
15645;SDS011;7922;43.622;1.476;2023-03-14T01:22:20;5.60;;;2.00;;
15645;SDS011;7922;43.622;1.476;2023-03-14T01:24:45;3.63;;;1.37;;
15645;SDS011;7922;43.622;1.476;2023-03-14T01:27:10;7.83;;;2.20;;
15645;SDS011;7922;43.622;1.476;2023-03-14T01:29:36;6.83;;;1.60;;
15645;SDS011;7922;43.622;1.476;2023-03-14T01:32:01;4.40;;;1.40;;
15645;SDS011;7922;43.622;1.476;2023-03-14T01:34:26;11.60;;;2.17;;
15645;SDS011;7922;43.622;1.476;2023-03-14T01:36:51;7.83;;;1.90;;
15645;SDS011;7922;43.622;1.476;2023-03-14T01:39:17;7.00;;;1.80;;
15645;SDS011;7922;43.622;1.476;2023-03-14T01:41:42;6.23;;;2.37;;
15645;SDS011;7922;43.622;1.476;2023-03-14T01:44:11;5.77;;;1.73;;
15645;SDS011;7922;43.622;1.476;2023-03-14T01:46:38;7.80;;;1.73;;
15645;SDS011;7922;43.622;1.476;2023-03-14T01:49:07;8.50;;;2.23;;
15645;SDS011;7922;43.622;1.476;2023-03-14T01:51:42;7.97;;;2.17;;
15645;SDS011;7922;43.622;1.476;2023-03-14T01:57:06;8.13;;;2.40;;
15645;SDS011;7922;43.622;1.476;2023-03-14T01:59:36;8.57;;;1.90;;
15645;SDS011;7922;43.622;1.476;2023-03-14T02:02:04;10.10;;;2.90;;
15645;SDS011;7922;43.622;1.476;2023-03-14T02:04:32;13.13;;;2.50;;
15645;SDS011;7922;43.622;1.476;2023-03-14T02:09:27;10.13;;;2.37;;
15645;SDS011;7922;43.622;1.476;2023-03-14T02:11:55;11.40;;;2.87;;
15645;SDS011;7922;43.622;1.476;2023-03-14T02:14:24;13.73;;;3.60;;
15645;SDS011;7922;43.622;1.476;2023-03-14T02:16:53;11.63;;;2.93;;
15645;SDS011;7922;43.622;1.476;2023-03-14T02:19:20;13.83;;;3.80;;
15645;SDS011;7922;43.622;1.476;2023-03-14T02:27:24;10.10;;;3.37;;
15645;SDS011;7922;43.622;1.476;2023-03-14T02:32:24;13.27;;;3.30;;
15645;SDS011;7922;43.622;1.476;2023-03-14T02:34:52;14.73;;;3.63;;
15645;SDS011;7922;43.622;1.476;2023-03-14T02:37:20;11.90;;;3.27;;
15645;SDS011;7922;43.622;1.476;2023-03-14T02:39:48;11.97;;;3.50;;
15645;SDS011;7922;43.622;1.476;2023-03-14T02:42:14;9.90;;;3.17;;
15645;SDS011;7922;43.622;1.476;2023-03-14T02:44:47;14.70;;;3.17;;
15645;SDS011;7922;43.622;1.476;2023-03-14T02:47:16;12.40;;;3.03;;
15645;SDS011;7922;43.622;1.476;2023-03-14T02:49:41;15.43;;;3.10;;
15645;SDS011;7922;43.622;1.476;2023-03-14T02:52:07;8.97;;;3.00;;
15645;SDS011;7922;43.622;1.476;2023-03-14T02:54:32;18.37;;;3.63;;
15645;SDS011;7922;43.622;1.476;2023-03-14T02:56:57;12.27;;;3.20;;
15645;SDS011;7922;43.622;1.476;2023-03-14T02:59:23;11.77;;;2.80;;
15645;SDS011;7922;43.622;1.476;2023-03-14T03:01:48;8.47;;;2.53;;
15645;SDS011;7922;43.622;1.476;2023-03-14T03:04:13;9.47;;;3.33;;
15645;SDS011;7922;43.622;1.476;2023-03-14T03:06:39;6.60;;;2.40;;
15645;SDS011;7922;43.622;1.476;2023-03-14T03:09:04;13.17;;;2.73;;
15645;SDS011;7922;43.622;1.476;2023-03-14T03:11:29;12.07;;;2.50;;
15645;SDS011;7922;43.622;1.476;2023-03-14T03:13:54;12.40;;;3.17;;
15645;SDS011;7922;43.622;1.476;2023-03-14T03:16:20;8.73;;;2.50;;
15645;SDS011;7922;43.622;1.476;2023-03-14T03:18:45;11.33;;;2.73;;
15645;SDS011;7922;43.622;1.476;2023-03-14T03:21:10;7.93;;;2.67;;
15645;SDS011;7922;43.622;1.476;2023-03-14T03:23:35;10.93;;;2.57;;
15645;SDS011;7922;43.622;1.476;2023-03-14T03:26:01;10.93;;;2.93;;
15645;SDS011;7922;43.622;1.476;2023-03-14T03:28:26;9.70;;;2.37;;
15645;SDS011;7922;43.622;1.476;2023-03-14T03:30:51;11.77;;;3.00;;
15645;SDS011;7922;43.622;1.476;2023-03-14T03:33:17;9.97;;;2.70;;
15645;SDS011;7922;43.622;1.476;2023-03-14T03:35:46;7.53;;;2.77;;
15645;SDS011;7922;43.622;1.476;2023-03-14T03:38:15;8.50;;;2.30;;
15645;SDS011;7922;43.622;1.476;2023-03-14T03:40:40;12.03;;;3.33;;
15645;SDS011;7922;43.622;1.476;2023-03-14T03:43:06;10.17;;;2.87;;
15645;SDS011;7922;43.622;1.476;2023-03-14T03:45:31;13.37;;;2.60;;
15645;SDS011;7922;43.622;1.476;2023-03-14T03:47:57;8.50;;;2.50;;
15645;SDS011;7922;43.622;1.476;2023-03-14T03:50:22;10.17;;;3.33;;
15645;SDS011;7922;43.622;1.476;2023-03-14T03:52:47;7.80;;;2.40;;
15645;SDS011;7922;43.622;1.476;2023-03-14T03:55:12;9.57;;;2.83;;
15645;SDS011;7922;43.622;1.476;2023-03-14T03:57:38;8.20;;;2.70;;
15645;SDS011;7922;43.622;1.476;2023-03-14T04:00:04;9.43;;;2.97;;
15645;SDS011;7922;43.622;1.476;2023-03-14T04:02:30;11.77;;;3.00;;
15645;SDS011;7922;43.622;1.476;2023-03-14T04:04:55;10.50;;;2.70;;
15645;SDS011;7922;43.622;1.476;2023-03-14T04:07:20;8.70;;;2.63;;
15645;SDS011;7922;43.622;1.476;2023-03-14T04:09:46;9.27;;;2.53;;
15645;SDS011;7922;43.622;1.476;2023-03-14T04:12:11;10.60;;;2.47;;
15645;SDS011;7922;43.622;1.476;2023-03-14T04:14:36;17.10;;;3.83;;
15645;SDS011;7922;43.622;1.476;2023-03-14T04:17:02;19.40;;;3.70;;
15645;SDS011;7922;43.622;1.476;2023-03-14T04:19:27;13.87;;;2.90;;
15645;SDS011;7922;43.622;1.476;2023-03-14T04:21:52;11.17;;;2.60;;
15645;SDS011;7922;43.622;1.476;2023-03-14T04:24:17;13.17;;;3.03;;
15645;SDS011;7922;43.622;1.476;2023-03-14T04:26:43;10.27;;;3.07;;
15645;SDS011;7922;43.622;1.476;2023-03-14T04:29:08;9.00;;;2.33;;
15645;SDS011;7922;43.622;1.476;2023-03-14T04:31:33;9.63;;;2.80;;
15645;SDS011;7922;43.622;1.476;2023-03-14T04:33:58;8.97;;;2.70;;
15645;SDS011;7922;43.622;1.476;2023-03-14T04:36:24;12.83;;;3.00;;
15645;SDS011;7922;43.622;1.476;2023-03-14T04:38:49;14.00;;;3.07;;
15645;SDS011;7922;43.622;1.476;2023-03-14T04:41:14;9.47;;;2.90;;
15645;SDS011;7922;43.622;1.476;2023-03-14T04:43:40;12.83;;;3.67;;
15645;SDS011;7922;43.622;1.476;2023-03-14T04:46:05;11.23;;;2.93;;
15645;SDS011;7922;43.622;1.476;2023-03-14T04:48:31;12.70;;;2.80;;
15645;SDS011;7922;43.622;1.476;2023-03-14T04:50:56;9.67;;;3.17;;
15645;SDS011;7922;43.622;1.476;2023-03-14T04:53:21;10.40;;;2.60;;
15645;SDS011;7922;43.622;1.476;2023-03-14T04:55:47;13.73;;;2.80;;
15645;SDS011;7922;43.622;1.476;2023-03-14T04:58:17;8.57;;;3.10;;
15645;SDS011;7922;43.622;1.476;2023-03-14T05:00:43;13.10;;;2.63;;
15645;SDS011;7922;43.622;1.476;2023-03-14T05:03:09;10.87;;;2.60;;
15645;SDS011;7922;43.622;1.476;2023-03-14T05:05:34;10.03;;;2.87;;
15645;SDS011;7922;43.622;1.476;2023-03-14T05:07:59;12.37;;;3.00;;
15645;SDS011;7922;43.622;1.476;2023-03-14T05:10:25;16.40;;;3.10;;
15645;SDS011;7922;43.622;1.476;2023-03-14T05:12:50;13.60;;;3.80;;
15645;SDS011;7922;43.622;1.476;2023-03-14T05:15:15;13.43;;;4.47;;
15645;SDS011;7922;43.622;1.476;2023-03-14T05:17:40;12.60;;;4.27;;
15645;SDS011;7922;43.622;1.476;2023-03-14T05:20:06;16.37;;;4.50;;
15645;SDS011;7922;43.622;1.476;2023-03-14T05:22:32;17.63;;;5.10;;
15645;SDS011;7922;43.622;1.476;2023-03-14T05:24:57;11.57;;;3.40;;
15645;SDS011;7922;43.622;1.476;2023-03-14T05:27:22;14.63;;;3.70;;
15645;SDS011;7922;43.622;1.476;2023-03-14T05:29:48;17.80;;;4.67;;
15645;SDS011;7922;43.622;1.476;2023-03-14T05:32:13;18.43;;;4.43;;
15645;SDS011;7922;43.622;1.476;2023-03-14T05:34:38;18.73;;;5.27;;
15645;SDS011;7922;43.622;1.476;2023-03-14T05:37:04;21.03;;;4.60;;
15645;SDS011;7922;43.622;1.476;2023-03-14T05:39:29;20.57;;;5.30;;
15645;SDS011;7922;43.622;1.476;2023-03-14T05:41:54;14.67;;;3.93;;
15645;SDS011;7922;43.622;1.476;2023-03-14T05:44:19;16.30;;;4.10;;
15645;SDS011;7922;43.622;1.476;2023-03-14T05:46:45;15.83;;;4.00;;
15645;SDS011;7922;43.622;1.476;2023-03-14T05:49:10;12.73;;;3.73;;
15645;SDS011;7922;43.622;1.476;2023-03-14T05:51:35;19.33;;;5.00;;
15645;SDS011;7922;43.622;1.476;2023-03-14T05:54:00;13.77;;;3.73;;
15645;SDS011;7922;43.622;1.476;2023-03-14T05:56:26;16.20;;;4.10;;
15645;SDS011;7922;43.622;1.476;2023-03-14T05:58:51;14.47;;;4.07;;
15645;SDS011;7922;43.622;1.476;2023-03-14T06:01:16;17.57;;;4.10;;
15645;SDS011;7922;43.622;1.476;2023-03-14T06:03:42;18.47;;;4.50;;
15645;SDS011;7922;43.622;1.476;2023-03-14T06:06:07;17.63;;;4.00;;
15645;SDS011;7922;43.622;1.476;2023-03-14T06:08:32;14.57;;;4.10;;
15645;SDS011;7922;43.622;1.476;2023-03-14T06:10:57;17.87;;;4.77;;
15645;SDS011;7922;43.622;1.476;2023-03-14T06:13:23;14.80;;;3.57;;
15645;SDS011;7922;43.622;1.476;2023-03-14T06:15:48;18.40;;;4.73;;
15645;SDS011;7922;43.622;1.476;2023-03-14T06:18:13;18.40;;;3.67;;
15645;SDS011;7922;43.622;1.476;2023-03-14T06:20:38;20.20;;;4.23;;
15645;SDS011;7922;43.622;1.476;2023-03-14T06:23:04;15.70;;;3.57;;
15645;SDS011;7922;43.622;1.476;2023-03-14T06:25:33;18.60;;;4.47;;
15645;SDS011;7922;43.622;1.476;2023-03-14T06:27:59;18.40;;;3.80;;
15645;SDS011;7922;43.622;1.476;2023-03-14T06:30:24;16.90;;;4.37;;
15645;SDS011;7922;43.622;1.476;2023-03-14T06:32:50;18.60;;;4.17;;
15645;SDS011;7922;43.622;1.476;2023-03-14T06:35:15;15.97;;;3.77;;
15645;SDS011;7922;43.622;1.476;2023-03-14T06:37:40;18.00;;;4.43;;
15645;SDS011;7922;43.622;1.476;2023-03-14T06:40:06;14.43;;;4.43;;
15645;SDS011;7922;43.622;1.476;2023-03-14T06:42:32;13.17;;;3.70;;
15645;SDS011;7922;43.622;1.476;2023-03-14T06:44:58;19.20;;;3.93;;
15645;SDS011;7922;43.622;1.476;2023-03-14T06:47:23;12.73;;;4.03;;
15645;SDS011;7922;43.622;1.476;2023-03-14T06:49:48;14.13;;;4.43;;
15645;SDS011;7922;43.622;1.476;2023-03-14T06:52:14;19.43;;;3.97;;
15645;SDS011;7922;43.622;1.476;2023-03-14T06:54:39;16.10;;;4.60;;
15645;SDS011;7922;43.622;1.476;2023-03-14T06:57:04;14.23;;;3.97;;
15645;SDS011;7922;43.622;1.476;2023-03-14T06:59:29;20.87;;;5.27;;
15645;SDS011;7922;43.622;1.476;2023-03-14T07:01:55;19.60;;;4.63;;
15645;SDS011;7922;43.622;1.476;2023-03-14T07:04:20;16.37;;;4.50;;
15645;SDS011;7922;43.622;1.476;2023-03-14T07:06:45;17.67;;;4.60;;
15645;SDS011;7922;43.622;1.476;2023-03-14T07:09:11;15.43;;;4.17;;
15645;SDS011;7922;43.622;1.476;2023-03-14T07:11:36;14.77;;;3.43;;
15645;SDS011;7922;43.622;1.476;2023-03-14T07:14:02;13.77;;;4.10;;
15645;SDS011;7922;43.622;1.476;2023-03-14T07:16:28;11.57;;;3.07;;
15645;SDS011;7922;43.622;1.476;2023-03-14T07:18:53;11.23;;;3.33;;
15645;SDS011;7922;43.622;1.476;2023-03-14T07:21:18;21.60;;;4.43;;
15645;SDS011;7922;43.622;1.476;2023-03-14T07:23:43;17.13;;;4.53;;
15645;SDS011;7922;43.622;1.476;2023-03-14T07:26:09;22.07;;;4.13;;
15645;SDS011;7922;43.622;1.476;2023-03-14T07:28:34;27.83;;;5.70;;
15645;SDS011;7922;43.622;1.476;2023-03-14T07:30:59;27.53;;;6.03;;
15645;SDS011;7922;43.622;1.476;2023-03-14T07:33:24;22.87;;;4.60;;
15645;SDS011;7922;43.622;1.476;2023-03-14T07:35:50;26.10;;;5.10;;
15645;SDS011;7922;43.622;1.476;2023-03-14T07:38:15;26.23;;;6.03;;
15645;SDS011;7922;43.622;1.476;2023-03-14T07:40:42;25.83;;;5.83;;
15645;SDS011;7922;43.622;1.476;2023-03-14T07:43:07;29.00;;;6.53;;
15645;SDS011;7922;43.622;1.476;2023-03-14T07:45:32;31.80;;;7.43;;
15645;SDS011;7922;43.622;1.476;2023-03-14T07:47:58;29.67;;;6.40;;
15645;SDS011;7922;43.622;1.476;2023-03-14T07:50:26;26.30;;;5.90;;
15645;SDS011;7922;43.622;1.476;2023-03-14T07:52:51;24.23;;;5.20;;
15645;SDS011;7922;43.622;1.476;2023-03-14T07:55:17;25.00;;;6.63;;
15645;SDS011;7922;43.622;1.476;2023-03-14T07:57:42;29.20;;;7.07;;
15645;SDS011;7922;43.622;1.476;2023-03-14T08:00:09;26.77;;;6.67;;
15645;SDS011;7922;43.622;1.476;2023-03-14T08:02:35;30.07;;;6.20;;
15645;SDS011;7922;43.622;1.476;2023-03-14T08:05:00;21.07;;;5.43;;
15645;SDS011;7922;43.622;1.476;2023-03-14T08:07:25;27.97;;;6.73;;
15645;SDS011;7922;43.622;1.476;2023-03-14T08:09:51;32.10;;;7.07;;
15645;SDS011;7922;43.622;1.476;2023-03-14T08:12:16;25.07;;;6.70;;
15645;SDS011;7922;43.622;1.476;2023-03-14T08:14:41;31.90;;;6.47;;
15645;SDS011;7922;43.622;1.476;2023-03-14T08:17:06;23.23;;;5.87;;
15645;SDS011;7922;43.622;1.476;2023-03-14T08:19:32;22.43;;;5.83;;
15645;SDS011;7922;43.622;1.476;2023-03-14T08:21:57;24.13;;;5.63;;
15645;SDS011;7922;43.622;1.476;2023-03-14T08:24:22;36.73;;;8.00;;
15645;SDS011;7922;43.622;1.476;2023-03-14T08:26:47;23.03;;;5.50;;
15645;SDS011;7922;43.622;1.476;2023-03-14T08:29:13;23.77;;;6.20;;
15645;SDS011;7922;43.622;1.476;2023-03-14T08:31:38;20.47;;;5.13;;
15645;SDS011;7922;43.622;1.476;2023-03-14T08:34:03;29.63;;;5.93;;
15645;SDS011;7922;43.622;1.476;2023-03-14T08:36:29;27.30;;;6.10;;
15645;SDS011;7922;43.622;1.476;2023-03-14T08:38:54;25.77;;;6.33;;
15645;SDS011;7922;43.622;1.476;2023-03-14T08:41:20;29.93;;;7.10;;
15645;SDS011;7922;43.622;1.476;2023-03-14T08:43:45;23.83;;;6.30;;
15645;SDS011;7922;43.622;1.476;2023-03-14T08:46:11;28.80;;;7.03;;
15645;SDS011;7922;43.622;1.476;2023-03-14T08:48:36;19.47;;;5.23;;
15645;SDS011;7922;43.622;1.476;2023-03-14T08:51:05;24.97;;;6.20;;
15645;SDS011;7922;43.622;1.476;2023-03-14T08:53:31;19.23;;;5.10;;
15645;SDS011;7922;43.622;1.476;2023-03-14T08:55:56;27.27;;;6.97;;
15645;SDS011;7922;43.622;1.476;2023-03-14T08:58:21;24.63;;;6.23;;
15645;SDS011;7922;43.622;1.476;2023-03-14T09:00:46;21.27;;;5.77;;
15645;SDS011;7922;43.622;1.476;2023-03-14T09:03:12;24.90;;;6.17;;
15645;SDS011;7922;43.622;1.476;2023-03-14T09:05:37;23.87;;;6.00;;
15645;SDS011;7922;43.622;1.476;2023-03-14T09:08:02;22.10;;;6.33;;
15645;SDS011;7922;43.622;1.476;2023-03-14T09:10:28;31.57;;;6.30;;
15645;SDS011;7922;43.622;1.476;2023-03-14T09:12:53;23.07;;;5.97;;
15645;SDS011;7922;43.622;1.476;2023-03-14T09:15:18;26.03;;;6.53;;
15645;SDS011;7922;43.622;1.476;2023-03-14T09:17:43;11.13;;;3.33;;
15645;SDS011;7922;43.622;1.476;2023-03-14T09:20:09;10.67;;;2.90;;
15645;SDS011;7922;43.622;1.476;2023-03-14T09:22:35;12.90;;;3.33;;
15645;SDS011;7922;43.622;1.476;2023-03-14T09:25:01;15.10;;;3.50;;
15645;SDS011;7922;43.622;1.476;2023-03-14T09:27:27;12.50;;;3.77;;
15645;SDS011;7922;43.622;1.476;2023-03-14T09:29:53;15.70;;;3.07;;
15645;SDS011;7922;43.622;1.476;2023-03-14T09:32:18;10.53;;;2.93;;
15645;SDS011;7922;43.622;1.476;2023-03-14T09:34:44;11.27;;;3.30;;
15645;SDS011;7922;43.622;1.476;2023-03-14T09:37:09;10.57;;;2.87;;
15645;SDS011;7922;43.622;1.476;2023-03-14T09:39:34;14.17;;;2.90;;
15645;SDS011;7922;43.622;1.476;2023-03-14T09:42:01;8.20;;;2.13;;
15645;SDS011;7922;43.622;1.476;2023-03-14T09:44:33;10.47;;;2.80;;
15645;SDS011;7922;43.622;1.476;2023-03-14T09:47:11;8.87;;;2.57;;
15645;SDS011;7922;43.622;1.476;2023-03-14T09:49:39;11.67;;;3.20;;
15645;SDS011;7922;43.622;1.476;2023-03-14T09:52:07;17.53;;;3.73;;
15645;SDS011;7922;43.622;1.476;2023-03-14T09:54:47;9.93;;;3.53;;
15645;SDS011;7922;43.622;1.476;2023-03-14T09:57:16;12.70;;;4.10;;
15645;SDS011;7922;43.622;1.476;2023-03-14T09:59:44;14.47;;;3.40;;
15645;SDS011;7922;43.622;1.476;2023-03-14T10:02:20;16.73;;;4.57;;
15645;SDS011;7922;43.622;1.476;2023-03-14T10:04:47;14.87;;;3.77;;
15645;SDS011;7922;43.622;1.476;2023-03-14T10:07:16;21.57;;;5.23;;
15645;SDS011;7922;43.622;1.476;2023-03-14T10:09:53;19.77;;;4.53;;
15645;SDS011;7922;43.622;1.476;2023-03-14T10:12:19;19.80;;;4.60;;
15645;SDS011;7922;43.622;1.476;2023-03-14T10:14:54;18.77;;;4.17;;
15645;SDS011;7922;43.622;1.476;2023-03-14T10:17:20;17.70;;;4.43;;
15645;SDS011;7922;43.622;1.476;2023-03-14T10:19:53;14.10;;;3.57;;
15645;SDS011;7922;43.622;1.476;2023-03-14T10:22:22;13.40;;;3.90;;
15645;SDS011;7922;43.622;1.476;2023-03-14T10:24:52;17.50;;;3.80;;
15645;SDS011;7922;43.622;1.476;2023-03-14T10:27:20;14.90;;;4.07;;
15645;SDS011;7922;43.622;1.476;2023-03-14T10:29:52;17.33;;;3.83;;
15645;SDS011;7922;43.622;1.476;2023-03-14T10:32:19;16.70;;;4.17;;
15645;SDS011;7922;43.622;1.476;2023-03-14T10:34:45;15.83;;;4.40;;
15645;SDS011;7922;43.622;1.476;2023-03-14T10:37:30;15.43;;;4.50;;
15645;SDS011;7922;43.622;1.476;2023-03-14T10:39:58;17.03;;;3.97;;
15645;SDS011;7922;43.622;1.476;2023-03-14T10:42:29;8.13;;;1.80;;
15645;SDS011;7922;43.622;1.476;2023-03-14T10:44:56;4.90;;;1.83;;
15645;SDS011;7922;43.622;1.476;2023-03-14T10:47:24;5.03;;;1.43;;
15645;SDS011;7922;43.622;1.476;2023-03-14T10:49:52;4.93;;;1.80;;
15645;SDS011;7922;43.622;1.476;2023-03-14T10:54:48;6.97;;;2.40;;
15645;SDS011;7922;43.622;1.476;2023-03-14T10:57:24;11.63;;;2.87;;
15645;SDS011;7922;43.622;1.476;2023-03-14T10:59:50;10.60;;;2.03;;
15645;SDS011;7922;43.622;1.476;2023-03-14T11:16:29;7.00;;;2.00;;
15645;SDS011;7922;43.622;1.476;2023-03-14T11:19:10;10.20;;;2.20;;
15645;SDS011;7922;43.622;1.476;2023-03-14T11:29:28;6.07;;;2.07;;
15645;SDS011;7922;43.622;1.476;2023-03-14T11:32:13;6.83;;;1.77;;
15645;SDS011;7922;43.622;1.476;2023-03-14T11:34:48;7.13;;;1.90;;
15645;SDS011;7922;43.622;1.476;2023-03-14T11:37:19;5.43;;;1.60;;
15645;SDS011;7922;43.622;1.476;2023-03-14T11:39:59;10.13;;;2.23;;
15645;SDS011;7922;43.622;1.476;2023-03-14T11:42:33;6.70;;;1.90;;
15645;SDS011;7922;43.622;1.476;2023-03-14T11:44:58;9.60;;;2.10;;
15645;SDS011;7922;43.622;1.476;2023-03-14T11:47:32;6.93;;;1.70;;
15645;SDS011;7922;43.622;1.476;2023-03-14T11:50:07;4.70;;;1.70;;
15645;SDS011;7922;43.622;1.476;2023-03-14T11:52:44;6.80;;;1.50;;
15645;SDS011;7922;43.622;1.476;2023-03-14T11:57:42;5.97;;;1.60;;
15645;SDS011;7922;43.622;1.476;2023-03-14T12:00:20;5.03;;;1.10;;
15645;SDS011;7922;43.622;1.476;2023-03-14T12:03:11;4.93;;;1.57;;
15645;SDS011;7922;43.622;1.476;2023-03-14T12:08:33;5.40;;;1.37;;
15645;SDS011;7922;43.622;1.476;2023-03-14T12:11:19;2.73;;;1.10;;
15645;SDS011;7922;43.622;1.476;2023-03-14T12:13:51;2.73;;;1.20;;
15645;SDS011;7922;43.622;1.476;2023-03-14T12:18:49;5.17;;;1.30;;
15645;SDS011;7922;43.622;1.476;2023-03-14T12:21:15;4.33;;;1.40;;
15645;SDS011;7922;43.622;1.476;2023-03-14T12:26:18;3.73;;;1.20;;
15645;SDS011;7922;43.622;1.476;2023-03-14T12:28:50;4.63;;;1.37;;
15645;SDS011;7922;43.622;1.476;2023-03-14T12:34:02;3.87;;;1.60;;
15645;SDS011;7922;43.622;1.476;2023-03-14T12:42:02;5.53;;;1.83;;
15645;SDS011;7922;43.622;1.476;2023-03-14T12:47:00;8.40;;;1.83;;
15645;SDS011;7922;43.622;1.476;2023-03-14T12:49:39;4.97;;;1.67;;
15645;SDS011;7922;43.622;1.476;2023-03-14T12:52:10;8.73;;;2.17;;
15645;SDS011;7922;43.622;1.476;2023-03-14T12:54:46;3.20;;;1.67;;
15645;SDS011;7922;43.622;1.476;2023-03-14T12:57:40;7.30;;;1.70;;
15645;SDS011;7922;43.622;1.476;2023-03-14T13:05:51;7.23;;;2.03;;
15645;SDS011;7922;43.622;1.476;2023-03-14T13:08:32;8.60;;;2.10;;
15645;SDS011;7922;43.622;1.476;2023-03-14T13:11:02;8.63;;;1.90;;
15645;SDS011;7922;43.622;1.476;2023-03-14T13:13:31;5.57;;;1.90;;
15645;SDS011;7922;43.622;1.476;2023-03-14T13:16:00;5.83;;;1.70;;
15645;SDS011;7922;43.622;1.476;2023-03-14T13:18:29;8.97;;;2.03;;
15645;SDS011;7922;43.622;1.476;2023-03-14T13:21:03;6.73;;;1.80;;
15645;SDS011;7922;43.622;1.476;2023-03-14T13:23:36;5.37;;;1.63;;
15645;SDS011;7922;43.622;1.476;2023-03-14T13:26:02;6.43;;;2.00;;
15645;SDS011;7922;43.622;1.476;2023-03-14T13:28:29;6.73;;;1.80;;
15645;SDS011;7922;43.622;1.476;2023-03-14T13:30:57;5.60;;;1.73;;
15645;SDS011;7922;43.622;1.476;2023-03-14T13:33:24;6.73;;;1.67;;
15645;SDS011;7922;43.622;1.476;2023-03-14T13:35:57;4.57;;;1.77;;
15645;SDS011;7922;43.622;1.476;2023-03-14T13:38:25;4.77;;;1.70;;
15645;SDS011;7922;43.622;1.476;2023-03-14T13:40:56;5.80;;;1.73;;
15645;SDS011;7922;43.622;1.476;2023-03-14T13:43:25;5.60;;;1.40;;
15645;SDS011;7922;43.622;1.476;2023-03-14T13:45:55;3.43;;;1.23;;
15645;SDS011;7922;43.622;1.476;2023-03-14T13:48:26;2.23;;;1.00;;
15645;SDS011;7922;43.622;1.476;2023-03-14T13:50:55;2.43;;;0.83;;
15645;SDS011;7922;43.622;1.476;2023-03-14T13:53:23;1.87;;;0.93;;
15645;SDS011;7922;43.622;1.476;2023-03-14T13:55:49;2.77;;;1.00;;
15645;SDS011;7922;43.622;1.476;2023-03-14T13:58:25;1.80;;;0.70;;
15645;SDS011;7922;43.622;1.476;2023-03-14T14:00:53;1.63;;;0.80;;
15645;SDS011;7922;43.622;1.476;2023-03-14T14:03:22;3.63;;;1.37;;
15645;SDS011;7922;43.622;1.476;2023-03-14T14:05:47;3.80;;;1.20;;
15645;SDS011;7922;43.622;1.476;2023-03-14T14:08:13;4.80;;;0.90;;
15645;SDS011;7922;43.622;1.476;2023-03-14T14:10:38;2.60;;;0.90;;
15645;SDS011;7922;43.622;1.476;2023-03-14T14:13:04;1.83;;;1.10;;
15645;SDS011;7922;43.622;1.476;2023-03-14T14:15:33;2.33;;;0.87;;
15645;SDS011;7922;43.622;1.476;2023-03-14T14:18:04;3.00;;;1.07;;
15645;SDS011;7922;43.622;1.476;2023-03-14T14:23:10;2.00;;;0.97;;
15645;SDS011;7922;43.622;1.476;2023-03-14T14:25:42;1.90;;;0.70;;
15645;SDS011;7922;43.622;1.476;2023-03-14T14:28:15;3.23;;;1.00;;
15645;SDS011;7922;43.622;1.476;2023-03-14T14:30:59;3.33;;;1.00;;
15645;SDS011;7922;43.622;1.476;2023-03-14T14:33:25;2.87;;;1.10;;
15645;SDS011;7922;43.622;1.476;2023-03-14T14:35:57;3.17;;;1.07;;
15645;SDS011;7922;43.622;1.476;2023-03-14T14:38:24;1.87;;;1.00;;
15645;SDS011;7922;43.622;1.476;2023-03-14T14:40:51;3.10;;;1.13;;
15645;SDS011;7922;43.622;1.476;2023-03-14T14:43:26;3.93;;;1.00;;
15645;SDS011;7922;43.622;1.476;2023-03-14T14:45:54;3.97;;;0.90;;
15645;SDS011;7922;43.622;1.476;2023-03-14T14:48:24;2.57;;;0.83;;
15645;SDS011;7922;43.622;1.476;2023-03-14T14:51:03;2.93;;;1.00;;
15645;SDS011;7922;43.622;1.476;2023-03-14T14:53:36;3.53;;;1.10;;
15645;SDS011;7922;43.622;1.476;2023-03-14T14:56:04;2.80;;;1.40;;
15645;SDS011;7922;43.622;1.476;2023-03-14T14:58:34;5.63;;;1.20;;
15645;SDS011;7922;43.622;1.476;2023-03-14T15:01:08;3.93;;;1.07;;
15645;SDS011;7922;43.622;1.476;2023-03-14T15:03:41;6.20;;;1.60;;
15645;SDS011;7922;43.622;1.476;2023-03-14T15:06:08;5.97;;;1.50;;
15645;SDS011;7922;43.622;1.476;2023-03-14T15:08:35;4.37;;;1.30;;
15645;SDS011;7922;43.622;1.476;2023-03-14T15:11:02;13.10;;;1.97;;
15645;SDS011;7922;43.622;1.476;2023-03-14T15:13:27;3.07;;;1.30;;
15645;SDS011;7922;43.622;1.476;2023-03-14T15:15:52;3.37;;;1.20;;
15645;SDS011;7922;43.622;1.476;2023-03-14T15:18:18;4.63;;;1.30;;
15645;SDS011;7922;43.622;1.476;2023-03-14T15:20:44;4.70;;;1.30;;
15645;SDS011;7922;43.622;1.476;2023-03-14T15:23:10;4.30;;;1.33;;
15645;SDS011;7922;43.622;1.476;2023-03-14T15:25:37;5.50;;;1.20;;
15645;SDS011;7922;43.622;1.476;2023-03-14T15:28:03;3.37;;;1.10;;
15645;SDS011;7922;43.622;1.476;2023-03-14T15:30:28;2.13;;;1.10;;
15645;SDS011;7922;43.622;1.476;2023-03-14T15:32:53;2.33;;;0.80;;
15645;SDS011;7922;43.622;1.476;2023-03-14T15:35:19;3.03;;;0.83;;
15645;SDS011;7922;43.622;1.476;2023-03-14T15:37:44;1.90;;;1.10;;
15645;SDS011;7922;43.622;1.476;2023-03-14T15:40:09;1.73;;;1.00;;
15645;SDS011;7922;43.622;1.476;2023-03-14T15:42:37;2.03;;;1.00;;
15645;SDS011;7922;43.622;1.476;2023-03-14T15:45:02;2.33;;;0.90;;
15645;SDS011;7922;43.622;1.476;2023-03-14T15:47:28;2.37;;;1.53;;
15645;SDS011;7922;43.622;1.476;2023-03-14T15:49:53;1.77;;;0.90;;
15645;SDS011;7922;43.622;1.476;2023-03-14T15:52:18;3.23;;;1.30;;
15645;SDS011;7922;43.622;1.476;2023-03-14T15:54:44;1.23;;;0.70;;
15645;SDS011;7922;43.622;1.476;2023-03-14T15:57:10;1.80;;;1.00;;
15645;SDS011;7922;43.622;1.476;2023-03-14T15:59:35;4.43;;;1.10;;
15645;SDS011;7922;43.622;1.476;2023-03-14T16:02:00;1.07;;;0.73;;
15645;SDS011;7922;43.622;1.476;2023-03-14T16:04:26;1.77;;;0.87;;